Time;durP1;ratioP1;P1;durP2;ratioP2;P2;SDS_P1;SDS_P2;PMS_P1;PMS_P2;Temp;Humidity;BMP_temperature;BMP_pressure;BME280_temperature;BME280_humidity;BME280_pressure;Samples;Min_cycle;Max_cycle;Signal;HPM_P1;HPM_P2
2021/08/23 00:00:06;;;;;;;14.45;9.40;;;;;;;19.06;56.41;100095.70;1667009;85;20991;-70
2021/08/23 00:02:32;;;;;;;16.02;9.85;;;;;;;19.03;56.70;100094.94;1667043;86;21067;-74
2021/08/23 00:04:59;;;;;;;18.85;10.70;;;;;;;19.00;56.90;100092.78;1666916;86;21524;-73
2021/08/23 00:07:27;;;;;;;21.75;14.83;;;;;;;18.95;57.37;100095.58;1664283;86;20959;-71
2021/08/23 00:09:55;;;;;;;21.87;15.53;;;;;;;18.78;59.12;100099.38;1638352;87;21044;-75
2021/08/23 00:12:21;;;;;;;21.42;13.65;;;;;;;18.43;60.20;100095.72;1661323;86;21092;-77
2021/08/23 00:14:49;;;;;;;22.00;11.97;;;;;;;18.29;60.28;100092.91;1666841;86;20944;-77
2021/08/23 00:17:16;;;;;;;17.98;11.55;;;;;;;18.30;60.38;100099.98;1665618;85;21062;-77
2021/08/23 00:19:44;;;;;;;17.17;13.40;;;;;;;18.27;60.79;100091.04;1666806;85;20913;-77
2021/08/23 00:22:22;;;;;;;16.12;11.90;;;;;;;18.25;60.90;100091.87;1663935;85;21012;-77
2021/08/23 00:24:50;;;;;;;26.73;16.37;;;;;;;18.26;60.70;100097.03;1637208;86;21583;-77
2021/08/23 00:27:17;;;;;;;23.52;11.48;;;;;;;18.24;61.32;100089.69;1673372;85;21055;-77
2021/08/23 00:29:45;;;;;;;17.07;10.60;;;;;;;18.15;61.19;100095.52;1674353;85;20991;-76
2021/08/23 00:32:14;;;;;;;16.85;11.48;;;;;;;18.19;61.12;100087.58;1674275;85;21501;-76
2021/08/23 00:34:40;;;;;;;12.00;10.10;;;;;;;18.12;61.80;100098.83;1673986;84;20957;-76
2021/08/23 00:37:07;;;;;;;14.63;11.05;;;;;;;18.03;61.95;100100.57;1674175;85;21067;-74
2021/08/23 00:39:35;;;;;;;23.70;12.55;;;;;;;18.05;61.94;100099.71;1718756;82;21032;-74
2021/08/23 00:42:03;;;;;;;17.98;11.70;;;;;;;18.10;62.05;100101.02;1716815;83;20999;-73
2021/08/23 00:44:31;;;;;;;12.80;9.70;;;;;;;18.14;62.09;100096.61;1694561;83;21048;-72
2021/08/23 00:46:59;;;;;;;21.52;12.70;;;;;;;18.18;62.09;100097.66;1718777;83;20985;-72
2021/08/23 00:49:29;;;;;;;21.10;12.82;;;;;;;18.16;62.54;100099.87;1718727;83;21545;-71
2021/08/23 00:51:55;;;;;;;23.02;14.78;;;;;;;17.98;62.86;100097.09;1718649;82;21061;-73
2021/08/23 00:54:22;;;;;;;16.17;11.73;;;;;;;17.86;63.41;100101.00;1718769;83;21047;-73
2021/08/23 00:56:49;;;;;;;17.77;10.50;;;;;;;17.82;63.24;100101.87;1718437;83;21160;-72
2021/08/23 00:59:18;;;;;;;20.23;13.03;;;;;;;17.89;62.84;100104.26;1690582;83;20971;-80
2021/08/23 01:02:06;;;;;;;14.70;11.28;;;;;;;17.98;62.78;100106.61;1688596;85;20928;-75
2021/08/23 01:05:18;;;;;;;15.50;11.90;;;;;;;18.03;62.66;100103.84;1687855;84;21024;-78
2021/08/23 01:08:13;;;;;;;15.15;11.10;;;;;;;18.07;62.55;100100.80;1671865;84;21071;-75
2021/08/23 01:10:45;;;;;;;12.55;8.50;;;;;;;18.12;62.27;100101.55;1672213;84;21084;-77
2021/08/23 01:13:11;;;;;;;12.18;9.63;;;;;;;18.20;61.91;100095.46;1719043;83;22300;-75
2021/08/23 01:15:38;;;;;;;14.90;9.68;;;;;;;18.27;61.85;100094.55;1718816;83;21509;-75
2021/08/23 01:18:04;;;;;;;18.05;14.10;;;;;;;18.35;61.71;100097.19;1718930;83;20954;-76
2021/08/23 01:20:40;;;;;;;14.58;9.90;;;;;;;18.40;61.79;100097.68;1717097;83;20996;-76
2021/08/23 01:23:06;;;;;;;12.45;9.80;;;;;;;18.40;61.64;100101.77;1693868;83;21872;-77
2021/08/23 01:25:34;;;;;;;11.15;9.15;;;;;;;18.42;61.57;100102.27;1643004;84;21579;-70
2021/08/23 01:28:24;;;;;;;14.15;9.73;;;;;;;18.45;61.61;100103.06;1665921;84;21141;-72
2021/08/23 01:31:16;;;;;;;16.82;10.63;;;;;;;18.45;61.69;100105.79;1635826;86;21019;-74
2021/08/23 01:33:44;;;;;;;13.15;9.73;;;;;;;18.47;61.66;100103.56;1631204;85;21058;-75
2021/08/23 01:36:11;;;;;;;14.70;10.25;;;;;;;18.48;61.82;100109.28;1673789;85;21173;-74
2021/08/23 01:38:38;;;;;;;15.95;11.08;;;;;;;18.43;61.89;100106.08;1651176;85;21016;-75
2021/08/23 01:41:08;;;;;;;19.30;13.00;;;;;;;18.44;61.97;100103.61;1650743;85;33848;-73
2021/08/23 01:43:35;;;;;;;16.00;12.05;;;;;;;18.33;63.11;100102.11;1690140;84;21007;-72
2021/08/23 01:46:02;;;;;;;24.98;13.30;;;;;;;18.14;64.13;100099.88;1693984;84;21060;-73
2021/08/23 01:48:28;;;;;;;18.45;12.70;;;;;;;17.99;64.75;100100.05;1691187;84;21866;-73
2021/08/23 01:50:54;;;;;;;22.60;11.38;;;;;;;17.92;64.79;100099.59;1652275;84;21089;-72
2021/08/23 01:53:21;;;;;;;19.65;12.75;;;;;;;17.94;64.84;100099.55;1673492;85;21108;-72
2021/08/23 01:55:49;;;;;;;16.32;12.28;;;;;;;17.87;65.15;100097.73;1674738;85;21161;-72
2021/08/23 01:58:15;;;;;;;18.17;13.70;;;;;;;17.82;65.42;100101.87;1675010;85;21024;-72
2021/08/23 02:00:42;;;;;;;17.07;10.50;;;;;;;17.77;65.51;100100.55;1675153;85;21059;-73
2021/08/23 02:03:08;;;;;;;17.75;12.45;;;;;;;17.79;65.09;100099.16;1674751;85;20972;-72
2021/08/23 02:05:35;;;;;;;14.33;11.73;;;;;;;17.76;65.62;100103.00;1666742;85;23838;-72
2021/08/23 02:08:02;;;;;;;14.95;10.60;;;;;;;17.77;65.65;100093.20;1670635;85;21541;-72
2021/08/23 02:10:31;;;;;;;14.15;10.55;;;;;;;17.83;65.40;100098.05;1675011;85;21031;-72
2021/08/23 02:12:57;;;;;;;15.20;11.10;;;;;;;17.92;64.87;100095.52;1674944;85;21105;-72
2021/08/23 02:15:23;;;;;;;18.55;11.60;;;;;;;17.95;64.78;100093.02;1650268;85;21079;-71
2021/08/23 02:17:49;;;;;;;22.20;11.50;;;;;;;17.97;64.68;100096.27;1674880;85;21080;-72
2021/08/23 02:20:16;;;;;;;22.98;14.73;;;;;;;17.98;64.70;100092.45;1675299;85;21003;-71
2021/08/23 02:22:44;;;;;;;21.62;13.40;;;;;;;17.99;64.61;100097.32;1675103;85;20956;-71
2021/08/23 02:25:11;;;;;;;18.82;14.45;;;;;;;17.94;64.72;100092.75;1650073;85;21068;-72
2021/08/23 02:27:37;;;;;;;19.92;14.05;;;;;;;17.75;65.08;100094.03;1668557;84;20979;-71
2021/08/23 02:30:04;;;;;;;21.12;13.85;;;;;;;17.56;65.71;100090.92;1666914;85;21552;-72
2021/08/23 02:32:33;;;;;;;19.82;13.60;;;;;;;17.41;66.17;100093.22;1642420;86;21032;-71
2021/08/23 02:34:59;;;;;;;20.27;13.30;;;;;;;17.23;66.80;100092.56;1666868;86;20955;-71
2021/08/23 02:37:25;;;;;;;17.65;12.18;;;;;;;17.08;67.42;100094.84;1667067;85;21095;-71
2021/08/23 02:39:51;;;;;;;28.23;12.73;;;;;;;16.97;67.85;100100.92;1666069;84;21051;-71
2021/08/23 02:42:18;;;;;;;17.87;13.13;;;;;;;16.86;68.30;100103.42;1655775;86;20955;-71
2021/08/23 02:44:44;;;;;;;18.92;12.30;;;;;;;16.84;68.65;100100.16;1637076;87;21060;-72
2021/08/23 02:47:10;;;;;;;30.60;13.25;;;;;;;16.78;68.92;100103.20;1638571;87;21073;-71
2021/08/23 02:49:37;;;;;;;18.45;13.35;;;;;;;16.74;69.21;100104.29;1638493;87;21938;-72
2021/08/23 02:52:04;;;;;;;15.40;11.90;;;;;;;16.72;69.44;100103.77;1638591;86;21592;-71
2021/08/23 02:54:30;;;;;;;17.85;12.35;;;;;;;16.72;69.69;100102.42;1631989;86;21114;-71
2021/08/23 02:56:56;;;;;;;18.35;13.65;;;;;;;16.72;69.71;100098.89;1666972;86;21083;-72
2021/08/23 02:59:22;;;;;;;17.62;12.45;;;;;;;16.67;69.76;100096.20;1667080;85;21019;-72
2021/08/23 03:01:49;;;;;;;17.50;12.33;;;;;;;16.60;70.17;100105.18;1666931;85;21060;-72
2021/08/23 03:04:15;;;;;;;20.70;14.38;;;;;;;16.56;70.33;100109.79;1670609;84;21015;-72
2021/08/23 03:06:43;;;;;;;18.82;13.13;;;;;;;16.51;70.49;100111.17;1667236;85;21048;-72
2021/08/23 03:09:10;;;;;;;18.02;13.83;;;;;;;16.44;70.81;100109.86;1666852;85;21112;-72
2021/08/23 03:11:38;;;;;;;25.32;16.23;;;;;;;16.35;71.13;100115.59;1667119;86;21517;-72
2021/08/23 03:14:04;;;;;;;20.40;14.90;;;;;;;16.25;71.53;100116.45;1640130;86;21785;-72
2021/08/23 03:16:31;;;;;;;20.45;15.32;;;;;;;16.15;72.06;100113.77;1655840;85;21036;-72
2021/08/23 03:18:59;;;;;;;25.75;18.02;;;;;;;16.12;72.53;100118.36;1653379;86;21100;-72
2021/08/23 03:21:27;;;;;;;34.08;16.65;;;;;;;16.08;72.92;100116.76;1655298;86;21009;-72
2021/08/23 03:23:55;;;;;;;34.48;18.02;;;;;;;16.04;73.21;100116.23;1666845;86;21041;-72
2021/08/23 03:26:21;;;;;;;26.97;17.62;;;;;;;16.00;73.48;100127.37;1667089;85;21901;-72
2021/08/23 03:28:48;;;;;;;22.40;14.83;;;;;;;16.03;73.69;100124.91;1667049;86;21056;-72
2021/08/23 03:31:14;;;;;;;25.57;16.73;;;;;;;16.11;73.66;100124.91;1642605;86;21539;-72
2021/08/23 03:33:40;;;;;;;24.02;15.58;;;;;;;16.09;73.70;100121.64;1666851;86;21051;-72
2021/08/23 03:36:06;;;;;;;23.85;15.90;;;;;;;16.06;73.95;100127.63;1665976;85;21556;-72
2021/08/23 03:38:33;;;;;;;33.13;16.20;;;;;;;16.01;74.17;100118.14;1667082;85;21267;-72
2021/08/23 03:40:59;;;;;;;25.05;15.78;;;;;;;15.97;74.49;100126.57;1641750;86;21063;-72
2021/08/23 03:43:26;;;;;;;25.95;15.28;;;;;;;15.92;74.73;100123.30;1657206;85;21577;-75
2021/08/23 03:45:52;;;;;;;30.05;15.83;;;;;;;15.91;75.02;100124.95;1667023;86;21027;-71
2021/08/23 03:48:18;;;;;;;22.75;15.93;;;;;;;15.88;75.28;100128.19;1667091;85;21027;-73
2021/08/23 03:50:44;;;;;;;20.55;13.68;;;;;;;15.86;75.54;100126.31;1666924;84;22242;-72
2021/08/23 03:53:11;;;;;;;27.73;16.97;;;;;;;15.85;75.73;100128.75;1666207;85;21091;-72
2021/08/23 03:55:38;;;;;;;18.95;13.85;;;;;;;15.86;75.85;100127.12;1665226;86;21025;-72
2021/08/23 03:58:04;;;;;;;22.25;14.55;;;;;;;15.89;75.93;100131.99;1638376;87;21085;-72
2021/08/23 04:00:31;;;;;;;21.02;14.95;;;;;;;15.95;75.90;100128.19;1644091;86;21056;-72
2021/08/23 04:02:57;;;;;;;27.87;15.03;;;;;;;16.04;75.92;100131.97;1666775;86;21110;-72
2021/08/23 04:05:24;;;;;;;21.82;15.95;;;;;;;16.12;75.71;100130.03;1666027;86;21059;-72
2021/08/23 04:07:52;;;;;;;17.85;14.07;;;;;;;16.15;75.51;100127.34;1667082;85;21489;-71
2021/08/23 04:10:19;;;;;;;22.80;15.90;;;;;;;16.17;75.43;100129.21;1666950;86;21064;-71
2021/08/23 04:12:45;;;;;;;20.10;14.73;;;;;;;16.17;75.36;100126.50;1666555;85;20975;-72
2021/08/23 04:15:12;;;;;;;27.48;14.93;;;;;;;16.13;75.39;100131.67;1666463;85;21925;-74
2021/08/23 04:17:38;;;;;;;22.32;15.00;;;;;;;16.11;75.51;100129.77;1667159;85;20913;-72
2021/08/23 04:20:05;;;;;;;26.35;15.15;;;;;;;16.13;75.63;100132.20;1666004;85;21024;-72
2021/08/23 04:22:32;;;;;;;20.37;14.10;;;;;;;16.14;75.73;100127.88;1664020;85;21051;-71
2021/08/23 04:24:59;;;;;;;23.55;14.95;;;;;;;16.16;75.89;100124.89;1663039;85;21029;-72
2021/08/23 04:27:25;;;;;;;26.68;17.45;;;;;;;16.18;75.81;100133.55;1692123;84;21112;-71
2021/08/23 04:29:53;;;;;;;29.82;16.30;;;;;;;16.19;75.89;100136.55;1699282;84;20996;-71
2021/08/23 04:32:19;;;;;;;24.37;17.10;;;;;;;16.21;75.81;100130.85;1672264;84;20964;-72
2021/08/23 04:34:46;;;;;;;27.82;17.32;;;;;;;16.22;75.89;100133.27;1698353;84;21541;-72
2021/08/23 04:37:12;;;;;;;27.22;17.10;;;;;;;16.26;75.96;100130.27;1718744;83;21090;-72
2021/08/23 04:39:38;;;;;;;27.30;17.50;;;;;;;16.31;75.89;100132.15;1718705;83;21109;-72
2021/08/23 04:42:05;;;;;;;27.85;18.40;;;;;;;16.39;75.78;100131.59;1718637;83;21004;-72
2021/08/23 04:44:33;;;;;;;28.50;18.35;;;;;;;16.45;75.64;100135.92;1693651;83;21040;-72
2021/08/23 04:46:59;;;;;;;27.95;17.45;;;;;;;16.51;75.50;100134.80;1718638;83;21008;-72
2021/08/23 04:49:25;;;;;;;21.40;15.38;;;;;;;16.62;75.30;100138.31;1715722;83;20979;-73
2021/08/23 04:51:52;;;;;;;19.50;13.90;;;;;;;16.74;75.20;100132.81;1694326;83;21093;-72
2021/08/23 04:54:18;;;;;;;22.65;13.95;;;;;;;16.88;75.11;100133.04;1704258;83;20920;-71
2021/08/23 04:56:48;;;;;;;19.07;13.65;;;;;;;16.98;74.73;100128.33;1718908;83;21035;-72
2021/08/23 04:59:15;;;;;;;22.52;15.18;;;;;;;17.07;74.29;100131.83;1699005;84;21040;-72
2021/08/23 05:01:42;;;;;;;18.82;13.50;;;;;;;17.15;74.17;100129.33;1726814;83;21136;-72
2021/08/23 05:04:08;;;;;;;16.32;13.58;;;;;;;17.27;73.66;100127.05;1702590;83;21847;-73
2021/08/23 05:06:35;;;;;;;21.17;14.23;;;;;;;17.42;73.23;100128.84;1726568;83;20947;-72
2021/08/23 05:09:01;;;;;;;20.45;13.32;;;;;;;17.55;72.77;100126.03;1726754;83;21508;-72
2021/08/23 05:11:29;;;;;;;22.58;13.08;;;;;;;17.65;72.30;100132.78;1726727;83;21051;-73
2021/08/23 05:13:56;;;;;;;22.98;13.58;;;;;;;17.74;71.86;100131.06;1725600;83;20989;-73
2021/08/23 05:16:22;;;;;;;19.30;13.65;;;;;;;17.80;71.59;100128.54;1693033;83;21278;-73
2021/08/23 05:18:49;;;;;;;16.35;13.10;;;;;;;17.84;71.28;100130.40;1701087;83;20901;-73
2021/08/23 05:21:15;;;;;;;16.65;12.95;;;;;;;17.89;71.18;100133.62;1717013;83;21035;-73
2021/08/23 05:23:41;;;;;;;17.42;12.50;;;;;;;17.93;70.98;100126.53;1718682;83;21056;-72
2021/08/23 05:26:08;;;;;;;25.57;14.15;;;;;;;17.97;70.74;100128.12;1718592;83;21059;-72
2021/08/23 05:28:35;;;;;;;20.75;13.28;;;;;;;18.03;70.55;100133.78;1701369;83;21093;-71
2021/08/23 05:31:01;;;;;;;20.17;14.47;;;;;;;18.06;70.44;100134.01;1718227;83;20897;-72
2021/08/23 05:33:28;;;;;;;17.62;11.57;;;;;;;18.11;70.36;100137.22;1693767;83;20991;-72
2021/08/23 05:35:54;;;;;;;18.45;12.73;;;;;;;18.17;70.29;100132.81;1708320;83;21580;-73
2021/08/23 05:38:21;;;;;;;19.95;12.70;;;;;;;18.22;70.07;100137.39;1708708;83;20975;-72
2021/08/23 05:40:47;;;;;;;17.10;12.50;;;;;;;18.32;69.79;100133.16;1690442;84;21144;-73
2021/08/23 05:43:13;;;;;;;17.98;13.53;;;;;;;18.40;69.71;100135.27;1719039;83;20956;-72
2021/08/23 05:45:44;;;;;;;15.55;13.05;;;;;;;18.45;69.58;100137.11;1694398;83;21094;-73
2021/08/23 05:48:10;;;;;;;16.80;11.18;;;;;;;18.49;69.32;100137.60;1719010;83;20900;-73
2021/08/23 05:50:38;;;;;;;13.22;11.65;;;;;;;18.55;69.22;100136.48;1718635;83;21035;-72
2021/08/23 05:53:06;;;;;;;16.15;13.18;;;;;;;18.60;69.02;100140.50;1694275;83;21800;-72
2021/08/23 05:55:33;;;;;;;18.17;13.90;;;;;;;18.63;68.66;100139.09;1693875;83;21068;-73
2021/08/23 05:58:00;;;;;;;19.57;12.78;;;;;;;18.66;68.54;100145.31;1717975;83;21560;-72
2021/08/23 06:00:26;;;;;;;18.02;12.80;;;;;;;18.70;68.52;100149.88;1694184;83;21121;-73
2021/08/23 06:02:54;;;;;;;17.73;12.65;;;;;;;18.74;68.49;100146.05;1719166;83;21059;-72
2021/08/23 06:05:21;;;;;;;20.40;11.93;;;;;;;18.78;68.46;100142.98;1718563;83;21198;-73
2021/08/23 06:07:49;;;;;;;12.43;10.98;;;;;;;18.82;68.39;100144.02;1692038;83;20952;-73
2021/08/23 06:10:17;;;;;;;13.75;11.80;;;;;;;18.87;67.98;100140.41;1688613;85;21137;-73
2021/08/23 06:12:43;;;;;;;12.53;10.70;;;;;;;18.92;67.73;100145.25;1669787;86;21024;-73
2021/08/23 06:15:09;;;;;;;14.38;10.43;;;;;;;18.98;67.41;100145.99;1689126;85;21071;-73
2021/08/23 06:17:36;;;;;;;15.78;10.45;;;;;;;19.02;67.45;100147.84;1688730;85;21094;-72
2021/08/23 06:20:04;;;;;;;15.60;10.98;;;;;;;19.07;67.34;100147.77;1692615;83;20998;-72
2021/08/23 06:22:32;;;;;;;14.78;11.70;;;;;;;19.16;67.10;100143.27;1718820;83;21577;-73
2021/08/23 06:24:58;;;;;;;15.68;10.43;;;;;;;19.26;66.96;100138.77;1693827;83;21024;-73
2021/08/23 06:27:24;;;;;;;18.15;10.95;;;;;;;19.34;66.76;100138.08;1709565;83;21082;-69
2021/08/23 06:29:52;;;;;;;16.32;10.95;;;;;;;19.37;66.42;100134.23;1680948;84;21802;-72
2021/08/23 06:32:18;;;;;;;14.30;11.25;;;;;;;19.42;66.29;100138.23;1641390;86;21651;-72
2021/08/23 06:34:46;;;;;;;12.70;10.05;;;;;;;19.47;66.11;100136.02;1674915;85;20979;-72
2021/08/23 06:37:12;;;;;;;16.57;10.78;;;;;;;19.54;65.99;100137.80;1674799;84;21047;-72
2021/08/23 06:39:39;;;;;;;14.83;11.05;;;;;;;19.59;65.66;100128.97;1674266;85;21055;-72
2021/08/23 06:42:05;;;;;;;23.20;10.68;;;;;;;19.66;65.42;100131.33;1675346;85;21442;-71
2021/08/23 06:44:32;;;;;;;17.50;10.63;;;;;;;19.73;65.24;100127.64;1650128;85;21029;-72
2021/08/23 06:46:58;;;;;;;12.95;8.98;;;;;;;19.80;64.98;100122.62;1675041;85;21009;-72
2021/08/23 06:49:25;;;;;;;13.13;10.35;;;;;;;19.88;64.73;100123.28;1650119;85;21203;-72
2021/08/23 06:51:51;;;;;;;15.13;10.10;;;;;;;19.95;64.40;100119.58;1675171;85;21024;-73
2021/08/23 06:54:18;;;;;;;14.35;9.98;;;;;;;20.04;64.08;100125.19;1674985;85;21167;-71
2021/08/23 06:56:45;;;;;;;15.90;12.00;;;;;;;20.12;63.64;100120.93;1697984;83;20994;-72
2021/08/23 06:59:11;;;;;;;14.35;10.58;;;;;;;20.20;63.32;100125.68;1668971;83;21009;-72
2021/08/23 07:01:38;;;;;;;13.80;10.55;;;;;;;20.29;63.06;100123.30;1640483;86;21112;-72
2021/08/23 07:04:04;;;;;;;14.28;11.20;;;;;;;20.39;62.83;100117.67;1674207;85;20975;-73
2021/08/23 07:06:30;;;;;;;11.50;8.50;;;;;;;20.51;62.51;100124.00;1674807;85;21972;-71
2021/08/23 07:08:58;;;;;;;12.78;9.90;;;;;;;20.61;62.00;100121.06;1675137;85;21580;-71
2021/08/23 07:11:25;;;;;;;14.15;11.97;;;;;;;20.68;61.58;100120.62;1674789;85;21494;-72
2021/08/23 07:13:52;;;;;;;16.52;9.88;;;;;;;20.73;61.20;100120.52;1649910;85;21069;-71
2021/08/23 07:16:19;;;;;;;13.30;9.13;;;;;;;20.78;61.08;100123.14;1674392;84;21094;-70
2021/08/23 07:18:45;;;;;;;18.37;9.00;;;;;;;20.86;60.69;100118.34;1675025;85;21251;-71
2021/08/23 07:21:11;;;;;;;10.05;7.65;;;;;;;20.96;59.74;100115.94;1666949;85;20979;-71
2021/08/23 07:23:38;;;;;;;12.35;7.90;;;;;;;21.04;58.89;100109.73;1673781;85;21034;-72
2021/08/23 07:26:04;;;;;;;12.63;7.70;;;;;;;21.12;58.67;100117.19;1675170;85;21039;-72
2021/08/23 07:28:30;;;;;;;11.88;8.30;;;;;;;21.21;58.26;100123.01;1674072;85;21113;-71
2021/08/23 07:30:57;;;;;;;10.35;7.40;;;;;;;21.27;58.02;100123.70;1675017;83;21114;-71
2021/08/23 07:33:29;;;;;;;10.20;7.55;;;;;;;21.35;57.72;100122.95;1674867;83;21542;-71
2021/08/23 07:35:56;;;;;;;;;;;;;;;21.44;57.41;100127.14;1677348;85;21034;-71
2021/08/23 07:38:23;;;;;;;11.68;8.25;;;;;;;21.52;57.22;100124.46;1651464;85;20394;-70
2021/08/23 07:40:50;;;;;;;14.38;8.78;;;;;;;21.58;57.08;100128.66;1674482;85;21086;-71
2021/08/23 07:43:18;;;;;;;10.43;8.13;;;;;;;21.64;56.82;100134.83;1661878;85;21062;-73
2021/08/23 07:45:45;;;;;;;8.40;7.45;;;;;;;21.72;56.78;100136.28;1649206;85;21034;-70
2021/08/23 07:48:13;;;;;;;8.75;6.83;;;;;;;21.85;56.40;100142.78;1647180;85;21087;-72
2021/08/23 07:50:39;;;;;;;15.10;8.18;;;;;;;21.95;55.91;100141.19;1674175;85;21062;-73
2021/08/23 07:53:05;;;;;;;8.58;7.58;;;;;;;22.01;55.46;100146.78;1674914;85;21555;-72
2021/08/23 07:55:32;;;;;;;8.28;6.83;;;;;;;22.09;54.79;100139.16;1670807;83;21030;-73
2021/08/23 07:57:58;;;;;;;7.55;6.62;;;;;;;22.15;54.45;100139.83;1661151;85;21058;-73
2021/08/23 08:00:24;;;;;;;9.83;6.78;;;;;;;22.22;53.90;100139.36;1689434;84;20983;-71
2021/08/23 08:02:50;;;;;;;9.30;6.17;;;;;;;22.29;53.91;100149.31;1694505;84;21048;-72
2021/08/23 08:05:17;;;;;;;9.88;6.62;;;;;;;22.36;53.89;100154.58;1692515;84;21560;-72
2021/08/23 08:07:43;;;;;;;12.03;7.53;;;;;;;22.42;53.47;100151.95;1662898;86;21183;-71
2021/08/23 08:10:14;;;;;;;8.78;6.87;;;;;;;22.48;53.66;100152.62;1687473;84;20952;-73
2021/08/23 08:12:40;;;;;;;6.87;5.92;;;;;;;22.56;53.30;100151.83;1661873;86;21047;-73
2021/08/23 08:15:07;;;;;;;6.47;5.60;;;;;;;22.65;52.36;100158.70;1648772;85;21063;-73
2021/08/23 08:17:34;;;;;;;7.75;6.53;;;;;;;22.71;51.63;100160.20;1669387;84;21119;-72
2021/08/23 08:20:01;;;;;;;9.48;5.55;;;;;;;22.75;51.39;100150.21;1694333;83;21568;-71
2021/08/23 08:22:27;;;;;;;6.10;5.47;;;;;;;22.77;51.19;100143.85;1658196;84;20940;-70
2021/08/23 08:24:53;;;;;;;7.75;5.00;;;;;;;22.78;51.22;100138.62;1694425;84;21571;-71
2021/08/23 08:27:20;;;;;;;7.10;5.92;;;;;;;22.84;50.72;100134.02;1688304;84;20954;-72
2021/08/23 08:29:46;;;;;;;5.08;3.95;;;;;;;22.92;50.13;100137.91;1698401;83;21521;-71
2021/08/23 08:32:13;;;;;;;7.95;5.67;;;;;;;22.97;48.95;100146.77;1665031;85;21583;-72
2021/08/23 08:34:40;;;;;;;16.12;5.58;;;;;;;23.02;48.63;100152.11;1639335;85;21019;-70
2021/08/23 08:37:06;;;;;;;5.58;4.90;;;;;;;23.07;48.58;100155.84;1678483;84;21058;-70
2021/08/23 08:39:33;;;;;;;6.67;5.35;;;;;;;23.11;48.62;100152.70;1688992;84;21038;-70
2021/08/23 08:41:59;;;;;;;8.88;4.67;;;;;;;23.12;48.68;100155.69;1688301;84;21007;-71
2021/08/23 08:44:27;;;;;;;9.98;5.50;;;;;;;23.13;49.07;100155.91;1647931;85;22283;-70
2021/08/23 08:46:55;;;;;;;5.45;4.78;;;;;;;23.13;48.24;100148.48;1675471;84;21063;-71
2021/08/23 08:49:22;;;;;;;7.15;5.00;;;;;;;23.13;47.96;100149.86;1693569;83;21011;-71
2021/08/23 08:51:48;;;;;;;6.75;5.85;;;;;;;23.13;48.41;100153.17;1694317;84;21592;-71
2021/08/23 08:54:15;;;;;;;13.53;6.37;;;;;;;23.11;48.19;100143.09;1705842;84;21019;-70
2021/08/23 08:56:41;;;;;;;7.08;5.70;;;;;;;23.14;48.39;100150.11;1694522;84;21078;-72
2021/08/23 08:59:08;;;;;;;8.28;4.92;;;;;;;23.14;48.45;100147.92;1694194;84;20976;-70
2021/08/23 09:01:34;;;;;;;6.50;4.90;;;;;;;23.18;48.24;100145.59;1695768;84;20994;-70
2021/08/23 09:04:02;;;;;;;7.53;4.17;;;;;;;23.23;47.87;100138.56;1694188;84;21049;-70
2021/08/23 09:06:40;;;;;;;6.25;5.03;;;;;;;23.30;47.42;100133.41;1694399;84;21037;-70
2021/08/23 09:09:12;;;;;;;6.35;4.83;;;;;;;23.36;47.38;100128.54;1693399;84;21495;-70
2021/08/23 09:11:41;;;;;;;6.12;4.22;;;;;;;23.44;47.08;100125.84;1690843;84;21040;-70
2021/08/23 09:14:08;;;;;;;6.97;3.90;;;;;;;23.49;46.91;100128.17;1658036;86;21556;-69
2021/08/23 09:16:41;;;;;;;6.78;4.53;;;;;;;23.59;46.65;100127.84;1692094;84;21053;-69
2021/08/23 09:19:08;;;;;;;5.12;4.12;;;;;;;23.71;45.71;100121.10;1692376;84;21472;-72
2021/08/23 09:21:43;;;;;;;4.40;4.00;;;;;;;23.83;45.29;100116.56;1691845;84;21834;-70
2021/08/23 09:24:18;;;;;;;9.83;4.90;;;;;;;23.90;44.95;100111.36;1668287;84;20960;-71
2021/08/23 09:26:45;;;;;;;5.58;4.03;;;;;;;24.00;44.66;100114.31;1628866;86;21036;-68
2021/08/23 09:29:11;;;;;;;4.80;3.98;;;;;;;24.13;44.73;100113.84;1701061;82;21579;-69
2021/08/23 09:31:39;;;;;;;5.33;4.42;;;;;;;24.28;44.35;100114.70;1676750;85;21546;-69
2021/08/23 09:34:09;;;;;;;8.83;6.28;;;;;;;24.41;44.10;100119.20;1689203;84;21025;-70
2021/08/23 09:36:37;;;;;;;5.50;4.62;;;;;;;24.48;42.51;100120.84;1673832;85;21021;-70
2021/08/23 09:39:09;;;;;;;10.20;4.85;;;;;;;24.51;42.78;100113.89;1667045;85;21017;-69
2021/08/23 09:41:40;;;;;;;5.10;3.80;;;;;;;24.51;43.15;100119.39;1688973;85;21549;-69
2021/08/23 09:44:10;;;;;;;5.92;4.12;;;;;;;24.52;42.78;100123.16;1674331;85;22389;-70
2021/08/23 09:46:37;;;;;;;5.22;3.87;;;;;;;24.54;42.48;100120.90;1674531;85;21771;-70
2021/08/23 09:49:06;;;;;;;4.83;4.33;;;;;;;24.55;42.95;100129.96;1673044;84;21009;-70
2021/08/23 09:51:39;;;;;;;4.72;3.92;;;;;;;24.54;43.19;100129.72;1665930;85;20901;-69
2021/08/23 09:54:15;;;;;;;4.45;4.05;;;;;;;24.55;43.36;100128.59;1688400;84;21027;-70
2021/08/23 09:56:53;;;;;;;5.97;4.22;;;;;;;24.58;42.85;100123.78;1685061;85;21416;-73
2021/08/23 09:59:24;;;;;;;7.70;4.03;;;;;;;24.57;42.40;100134.54;1689160;85;21068;-74
2021/08/23 10:01:53;;;;;;;4.37;4.00;;;;;;;24.60;41.99;100131.14;1688906;84;21084;-71
2021/08/23 10:04:19;;;;;;;5.90;4.25;;;;;;;24.63;41.63;100131.84;1676529;85;21004;-77
2021/08/23 10:06:48;;;;;;;4.25;3.65;;;;;;;24.67;41.31;100138.29;1688702;85;21001;-82
2021/08/23 10:09:23;;;;;;;7.00;3.70;;;;;;;24.72;40.90;100122.97;1689379;84;20992;-82
2021/08/23 10:11:55;;;;;;;7.87;3.80;;;;;;;24.67;40.93;100125.34;1669886;84;21606;-82
2021/08/23 10:14:22;;;;;;;3.90;3.50;;;;;;;24.65;40.67;100117.98;1683854;85;21026;-79
2021/08/23 10:16:48;;;;;;;7.80;4.58;;;;;;;24.65;40.33;100119.36;1676928;85;20991;-77
2021/08/23 10:19:16;;;;;;;6.65;5.87;;;;;;;24.67;40.27;100117.09;1689096;84;21000;-78
2021/08/23 10:21:48;;;;;;;4.58;3.83;;;;;;;24.72;40.43;100111.39;1689142;85;21057;-75
2021/08/23 10:24:28;;;;;;;3.52;3.22;;;;;;;24.86;39.29;100115.83;1671700;84;21034;-74
2021/08/23 10:26:56;;;;;;;3.70;3.20;;;;;;;24.95;39.38;100106.97;1649764;85;21495;-73
2021/08/23 10:29:24;;;;;;;6.55;4.35;;;;;;;25.07;39.58;100101.55;1676453;84;21021;-74
2021/08/23 10:31:50;;;;;;;3.95;3.42;;;;;;;25.15;39.05;100097.91;1701422;84;21485;-74
2021/08/23 10:34:23;;;;;;;3.47;3.17;;;;;;;25.24;39.04;100101.39;1686104;84;21118;-74
2021/08/23 10:36:50;;;;;;;4.40;3.35;;;;;;;25.29;38.62;100083.28;1685702;84;21044;-76
2021/08/23 10:39:22;;;;;;;6.15;4.25;;;;;;;25.28;38.52;100084.42;1701961;83;20893;-75
2021/08/23 10:41:50;;;;;;;3.47;3.15;;;;;;;25.27;38.69;100077.89;1701374;84;21035;-72
2021/08/23 10:44:31;;;;;;;10.28;4.10;;;;;;;25.31;38.84;100085.71;1690162;83;21029;-74
2021/08/23 10:47:07;;;;;;;4.05;3.05;;;;;;;25.42;38.89;100080.80;1672181;85;21043;-81
2021/08/23 10:49:44;;;;;;;3.17;2.87;;;;;;;25.62;38.67;100087.44;1672519;85;21126;-85
2021/08/23 10:52:12;;;;;;;3.92;3.27;;;;;;;25.75;38.11;100093.23;1689641;84;20996;-73
2021/08/23 10:54:41;;;;;;;7.47;2.67;;;;;;;25.82;37.95;100083.81;1711791;82;21033;-76
2021/08/23 10:57:13;;;;;;;4.37;3.25;;;;;;;25.85;37.87;100087.25;1711446;83;21100;-79
2021/08/23 10:59:51;;;;;;;4.57;3.23;;;;;;;25.82;37.54;100085.19;1689893;84;21083;-75
2021/08/23 11:02:34;;;;;;;4.70;3.75;;;;;;;25.74;37.83;100080.59;1673062;84;21044;-76
2021/08/23 11:05:06;;;;;;;;;;;;;;;25.73;38.13;100078.17;1689737;83;20983;-75
2021/08/23 11:07:32;;;;;;;4.42;3.52;;;;;;;25.79;38.05;100079.56;1678525;83;20172;-74
2021/08/23 11:10:08;;;;;;;3.65;3.35;;;;;;;25.84;37.94;100073.27;1693259;83;21038;-75
2021/08/23 11:12:54;;;;;;;3.58;3.10;;;;;;;25.96;37.72;100076.59;1694464;84;21035;-74
2021/08/23 11:15:32;;;;;;;3.12;2.83;;;;;;;26.06;37.51;100065.12;1694545;84;21120;-76
2021/08/23 11:18:03;;;;;;;7.42;3.62;;;;;;;26.18;37.20;100061.58;1690195;84;21571;-76